createdAt,value
2023-04-11T00:02:18.008Z,0
2023-04-11T00:05:43.166Z,0
2023-04-11T00:09:08.391Z,0
2023-04-11T00:12:33.586Z,0
2023-04-11T00:15:58.762Z,0
2023-04-11T00:19:23.930Z,0
2023-04-11T00:22:49.122Z,0
2023-04-11T00:26:14.342Z,0
2023-04-11T00:29:39.584Z,0
2023-04-11T00:33:04.752Z,0
2023-04-11T00:36:30.125Z,0
2023-04-11T00:39:55.146Z,0
2023-04-11T00:43:20.352Z,0
2023-04-11T00:46:46.273Z,0
2023-04-11T00:50:10.756Z,0
2023-04-11T00:53:35.975Z,0
2023-04-11T00:57:01.138Z,0
2023-04-11T01:00:26.312Z,0
2023-04-11T01:03:51.632Z,0
2023-04-11T01:07:16.699Z,0
2023-04-11T01:10:41.888Z,0
2023-04-11T01:14:07.085Z,0
2023-04-11T01:17:32.283Z,0
2023-04-11T01:20:57.464Z,0
2023-04-11T01:24:22.616Z,0
2023-04-11T01:27:47.862Z,0
2023-04-11T01:31:13.052Z,0
2023-04-11T01:34:38.224Z,0
2023-04-11T01:38:03.434Z,0
2023-04-11T01:41:30.344Z,0
2023-04-11T01:44:55.557Z,0
2023-04-11T01:48:20.870Z,0
2023-04-11T01:51:45.948Z,0
2023-04-11T01:55:11.179Z,0
2023-04-11T01:58:36.353Z,0
2023-04-11T02:02:01.632Z,0
2023-04-11T02:05:26.679Z,0
2023-04-11T02:08:51.877Z,0
2023-04-11T02:12:17.102Z,0
2023-04-11T02:15:42.284Z,0
2023-04-11T02:19:07.450Z,0
2023-04-11T02:22:32.594Z,0
2023-04-11T02:25:57.822Z,0
2023-04-11T02:29:23.040Z,0
2023-04-11T02:32:48.261Z,0
2023-04-11T02:36:13.390Z,0
2023-04-11T02:39:38.587Z,0
2023-04-11T02:43:03.795Z,0
2023-04-11T02:46:29.141Z,0
2023-04-11T02:49:54.271Z,0
2023-04-11T02:53:19.540Z,0
2023-04-11T02:56:44.816Z,0
2023-04-11T03:00:10.031Z,0
2023-04-11T03:03:35.265Z,0
2023-04-11T03:07:00.468Z,0
2023-04-11T03:10:25.677Z,0
2023-04-11T03:13:50.965Z,0
2023-04-11T03:17:16.192Z,0
2023-04-11T03:20:41.472Z,0
2023-04-11T03:24:06.647Z,0
2023-04-11T03:27:31.861Z,0
2023-04-11T03:30:57.134Z,0
2023-04-11T03:34:22.323Z,0
2023-04-11T03:37:47.588Z,0
2023-04-11T03:41:12.787Z,0
2023-04-11T03:44:38.000Z,0
2023-04-11T03:48:03.362Z,0
2023-04-11T03:51:28.586Z,0
2023-04-11T03:54:53.823Z,0
2023-04-11T03:58:19.055Z,0
2023-04-11T04:01:44.397Z,0
2023-04-11T04:05:09.576Z,0
2023-04-11T04:08:34.765Z,0
2023-04-11T04:12:00.015Z,0
2023-04-11T04:15:25.193Z,0
2023-04-11T04:18:50.417Z,0
2023-04-11T04:22:15.613Z,0
2023-04-11T04:25:40.923Z,1
2023-04-11T04:29:06.133Z,1
2023-04-11T04:32:31.375Z,2
2023-04-11T04:35:56.544Z,2
2023-04-11T04:39:21.697Z,3
2023-04-11T04:42:46.908Z,4
2023-04-11T04:46:12.233Z,5
2023-04-11T04:49:37.301Z,7
2023-04-11T04:53:02.464Z,11
2023-04-11T04:56:27.669Z,19
2023-04-11T04:59:52.835Z,27
2023-04-11T05:03:18.233Z,17
2023-04-11T05:06:43.208Z,14
2023-04-11T05:10:08.390Z,7
2023-04-11T05:13:33.544Z,21
2023-04-11T05:16:58.833Z,29
2023-04-11T05:20:23.939Z,31
2023-04-11T05:23:49.083Z,36
2023-04-11T05:27:14.271Z,40
2023-04-11T05:30:39.470Z,38
2023-04-11T05:34:04.626Z,25
2023-04-11T05:37:29.824Z,25
2023-04-11T05:40:54.971Z,26
2023-04-11T05:44:21.598Z,27
2023-04-11T05:47:46.845Z,31
2023-04-11T05:51:12.095Z,33
2023-04-11T05:54:37.362Z,43
2023-04-11T05:58:02.567Z,47
2023-04-11T06:01:27.815Z,38
2023-04-11T06:04:53.033Z,38
2023-04-11T06:08:18.198Z,32
2023-04-11T06:11:43.502Z,33
2023-04-11T06:15:08.666Z,29
2023-04-11T06:18:33.885Z,30
2023-04-11T06:21:59.118Z,29
2023-04-11T06:25:24.344Z,27
2023-04-11T06:28:49.586Z,34
2023-04-11T06:32:14.812Z,38
2023-04-11T06:35:40.016Z,50
2023-04-11T06:39:05.252Z,63
2023-04-11T06:42:30.451Z,73
2023-04-11T06:45:55.715Z,66
2023-04-11T06:49:21.017Z,81
2023-04-11T06:52:46.328Z,90
2023-04-11T06:56:11.488Z,86
2023-04-11T06:59:36.723Z,68
2023-04-11T07:03:01.986Z,98
2023-04-11T07:06:27.158Z,112
2023-04-11T07:09:52.587Z,125
2023-04-11T07:13:17.848Z,118
2023-04-11T07:16:43.119Z,93
2023-04-11T07:20:08.316Z,92
2023-04-11T07:23:33.577Z,107
2023-04-11T07:27:05.122Z,88
2023-04-11T07:30:30.404Z,117
2023-04-11T07:33:55.898Z,136
2023-04-11T07:37:20.936Z,168
2023-04-11T07:40:46.169Z,218
2023-04-11T07:44:11.404Z,189
2023-04-11T07:47:36.674Z,565
2023-04-11T07:51:01.909Z,621
2023-04-11T07:54:27.170Z,425
2023-04-11T07:57:52.304Z,492
2023-04-11T08:01:17.546Z,317
2023-04-11T08:04:42.840Z,327
2023-04-11T08:08:07.998Z,618
2023-04-11T08:11:33.338Z,595
2023-04-11T08:14:58.596Z,658
2023-04-11T08:18:23.894Z,676
2023-04-11T08:21:49.067Z,525
2023-04-11T08:25:14.295Z,674
2023-04-11T08:28:41.990Z,560
2023-04-11T08:32:04.740Z,566
2023-04-11T08:35:30.052Z,549
2023-04-11T08:38:55.292Z,497
2023-04-11T08:42:20.537Z,588
2023-04-11T08:45:45.797Z,401
2023-04-11T08:49:11.036Z,522
2023-04-11T08:52:36.261Z,589
2023-04-11T08:56:01.571Z,333
2023-04-11T08:59:26.755Z,348
2023-04-11T09:02:52.057Z,428
2023-04-11T09:06:17.150Z,961
2023-04-11T09:09:42.378Z,716
2023-04-11T09:13:07.618Z,275
2023-04-11T09:16:32.853Z,163
2023-04-11T09:19:58.140Z,143
2023-04-11T09:23:24.866Z,247
2023-04-11T09:26:48.611Z,323
2023-04-11T09:30:13.779Z,293
2023-04-11T09:33:39.800Z,626
2023-04-11T09:37:05.040Z,805
2023-04-11T09:40:30.260Z,428
2023-04-11T09:43:55.759Z,779
2023-04-11T09:47:20.696Z,867
2023-04-11T09:50:45.832Z,921
2023-04-11T09:54:11.062Z,675
2023-04-11T09:57:36.269Z,947
2023-04-11T10:01:01.485Z,273
2023-04-11T10:04:26.735Z,409
2023-04-11T10:07:51.903Z,271
2023-04-11T10:11:17.145Z,1058
2023-04-11T10:14:42.339Z,333
2023-04-11T10:18:07.579Z,427
2023-04-11T10:21:32.792Z,1000
2023-04-11T10:24:57.921Z,503
2023-04-11T10:28:23.249Z,1028
2023-04-11T10:31:48.463Z,722
2023-04-11T10:35:22.151Z,976
2023-04-11T10:38:47.426Z,1324
2023-04-11T10:42:12.566Z,338
2023-04-11T10:45:37.784Z,601
2023-04-11T10:49:09.298Z,281
2023-04-11T10:52:54.239Z,230
2023-04-11T10:56:31.210Z,125
2023-04-11T10:59:56.478Z,97
2023-04-11T11:03:21.983Z,77
2023-04-11T11:06:54.811Z,178
2023-04-11T11:10:12.424Z,173
2023-04-11T11:13:37.653Z,386
2023-04-11T11:17:03.015Z,867
2023-04-11T11:20:28.097Z,930
2023-04-11T11:23:53.292Z,770
2023-04-11T11:27:18.525Z,536
2023-04-11T11:30:43.729Z,396
2023-04-11T11:34:22.590Z,525
2023-04-11T11:37:34.187Z,310
2023-04-11T11:40:59.386Z,341
2023-04-11T11:44:24.586Z,367
2023-04-11T11:47:49.829Z,513
2023-04-11T11:51:14.992Z,836
2023-04-11T11:54:40.456Z,723
2023-04-11T11:58:05.579Z,755
2023-04-11T12:01:30.830Z,531
2023-04-11T12:04:56.307Z,1038
2023-04-11T12:08:21.337Z,299
2023-04-11T12:11:46.555Z,763
2023-04-11T12:15:11.730Z,469
2023-04-11T12:18:36.922Z,429
2023-04-11T12:22:02.125Z,497
2023-04-11T12:25:27.335Z,590
2023-04-11T12:28:52.530Z,968
2023-04-11T12:32:17.683Z,845
2023-04-11T12:35:42.855Z,781
2023-04-11T12:39:08.033Z,679
2023-04-11T12:45:58.577Z,557
2023-04-11T12:49:23.615Z,646
2023-04-11T12:52:48.866Z,637
2023-04-11T12:56:14.059Z,642
2023-04-11T12:59:39.493Z,709
2023-04-11T13:03:04.730Z,789
2023-04-11T13:06:29.768Z,806
2023-04-11T13:09:54.926Z,767
2023-04-11T13:13:20.144Z,749
2023-04-11T13:16:45.340Z,396
2023-04-11T13:20:10.910Z,254
2023-04-11T13:23:35.671Z,713
2023-04-11T13:27:00.943Z,729
2023-04-11T13:30:26.067Z,703
2023-04-11T13:33:51.271Z,673
2023-04-11T13:37:16.484Z,231
2023-04-11T13:40:41.619Z,249
2023-04-11T13:44:06.772Z,407
2023-04-11T13:47:31.974Z,315
2023-04-11T13:50:57.139Z,353
2023-04-11T13:54:22.367Z,518
2023-04-11T13:57:47.526Z,389
2023-04-11T14:01:12.880Z,344
2023-04-11T14:04:38.204Z,338
2023-04-11T14:08:03.296Z,327
2023-04-11T14:11:28.514Z,225
2023-04-11T14:14:53.721Z,124
2023-04-11T14:18:18.956Z,103
2023-04-11T14:21:44.183Z,120
2023-04-11T14:25:09.400Z,141
2023-04-11T14:28:34.659Z,235
2023-04-11T14:31:59.900Z,329
2023-04-11T14:35:25.139Z,283
2023-04-11T14:38:50.380Z,389
2023-04-11T14:42:15.612Z,338
2023-04-11T14:45:40.816Z,305
2023-04-11T14:49:05.998Z,211
2023-04-11T14:52:31.243Z,185
2023-04-11T14:55:56.467Z,124
2023-04-11T14:59:21.695Z,109
2023-04-11T15:02:47.013Z,126
2023-04-11T15:06:12.153Z,148
2023-04-11T15:39:41.437Z,108
2023-04-11T15:43:06.619Z,239
2023-04-11T15:46:31.906Z,126
2023-04-11T15:49:57.073Z,122
2023-04-11T15:53:22.308Z,237
2023-04-11T15:56:47.544Z,231
2023-04-11T16:00:12.714Z,252
2023-04-11T16:03:38.046Z,239
2023-04-11T16:07:03.189Z,241
2023-04-11T16:10:28.420Z,234
2023-04-11T16:13:53.709Z,241
2023-04-11T16:17:18.973Z,151
2023-04-11T16:20:44.208Z,153
2023-04-11T16:24:09.408Z,128
2023-04-11T16:27:34.703Z,75
2023-04-11T16:31:00.009Z,52
2023-04-11T16:34:25.269Z,30
2023-04-11T16:37:50.484Z,26
2023-04-11T16:41:15.715Z,40
2023-04-11T16:44:40.937Z,93
2023-04-11T16:48:06.201Z,129
2023-04-11T16:51:31.450Z,151
2023-04-11T16:54:56.662Z,148
2023-04-11T16:58:21.864Z,109
2023-04-11T17:01:47.191Z,66
2023-04-11T17:05:12.379Z,48
2023-04-11T17:08:37.649Z,49
2023-04-11T17:12:02.906Z,47
2023-04-11T17:15:28.151Z,39
2023-04-11T17:18:53.384Z,37
2023-04-11T17:22:18.659Z,33
2023-04-11T17:25:43.909Z,31
2023-04-11T17:29:09.205Z,30
2023-04-11T17:32:35.974Z,26
2023-04-11T17:35:59.831Z,19
2023-04-11T17:39:25.307Z,16
2023-04-11T17:42:50.528Z,13
2023-04-11T17:46:15.802Z,11
2023-04-11T17:49:40.985Z,11
2023-04-11T17:53:06.192Z,9
2023-04-11T17:56:31.495Z,7
2023-04-11T17:59:56.706Z,5
2023-04-11T18:03:21.990Z,3
2023-04-11T18:06:47.161Z,2
2023-04-11T18:10:12.366Z,2
2023-04-11T18:13:37.634Z,2
2023-04-11T18:17:02.861Z,1
2023-04-11T18:20:28.127Z,1
2023-04-11T18:23:53.336Z,1
2023-04-11T18:27:18.563Z,0
2023-04-11T18:30:43.856Z,0
2023-04-11T18:34:09.210Z,0
2023-04-11T18:37:34.235Z,0
2023-04-11T18:41:02.410Z,0
2023-04-11T18:44:24.784Z,0
2023-04-11T18:47:50.205Z,0
2023-04-11T18:51:15.181Z,0
2023-04-11T18:54:40.450Z,0
2023-04-11T18:58:07.905Z,0
2023-04-11T19:01:31.023Z,0
2023-04-11T19:04:56.918Z,0
2023-04-11T19:08:21.378Z,0
2023-04-11T19:11:46.701Z,0
2023-04-11T19:15:12.001Z,0
2023-04-11T19:18:37.192Z,0
2023-04-11T19:22:02.422Z,0
2023-04-11T19:25:27.603Z,0
2023-04-11T19:28:52.787Z,0
2023-04-11T19:32:18.037Z,0
2023-04-11T19:35:43.251Z,0
2023-04-11T19:39:08.466Z,0
2023-04-11T19:42:33.635Z,0
2023-04-11T19:45:58.860Z,0
2023-04-11T19:49:24.089Z,0
2023-04-11T19:52:49.365Z,0
2023-04-11T19:56:14.657Z,0
2023-04-11T19:59:39.891Z,0
2023-04-11T20:03:05.244Z,0
2023-04-11T20:06:30.327Z,0
2023-04-11T20:09:55.572Z,0
2023-04-11T20:13:20.944Z,0
2023-04-11T20:16:46.021Z,0
2023-04-11T20:20:11.348Z,0
2023-04-11T20:23:36.475Z,0
2023-04-11T20:27:01.692Z,0
2023-04-11T20:30:26.994Z,0
2023-04-11T20:33:52.200Z,0
2023-04-11T20:37:18.846Z,0
2023-04-11T20:40:42.705Z,0
2023-04-11T20:44:07.920Z,0
2023-04-11T20:47:33.321Z,0
2023-04-11T20:50:58.435Z,0
2023-04-11T20:54:23.645Z,0
2023-04-11T20:57:48.867Z,0
2023-04-11T21:01:14.176Z,0
2023-04-11T21:04:39.447Z,0
2023-04-11T21:08:04.574Z,0
2023-04-11T21:11:29.805Z,0
2023-04-11T21:14:55.020Z,0
2023-04-11T21:18:20.318Z,0
2023-04-11T21:21:45.534Z,0
2023-04-11T21:25:10.782Z,0
2023-04-11T21:28:36.021Z,0
2023-04-11T21:32:01.236Z,0
2023-04-11T21:35:26.488Z,0
2023-04-11T21:38:51.730Z,0
2023-04-11T21:42:16.924Z,0
2023-04-11T21:45:42.126Z,0
2023-04-11T21:49:07.335Z,0
2023-04-11T21:52:32.576Z,0
2023-04-11T21:55:57.821Z,0
2023-04-11T21:59:23.059Z,0
2023-04-11T22:02:48.424Z,0
2023-04-11T22:06:13.479Z,0
2023-04-11T22:09:38.724Z,0
2023-04-11T22:13:03.979Z,0
2023-04-11T22:16:29.196Z,0
2023-04-11T22:19:54.386Z,0
2023-04-11T22:23:19.622Z,0
2023-04-11T22:26:44.851Z,0
2023-04-11T22:30:10.076Z,0
2023-04-11T22:33:35.275Z,0
2023-04-11T22:37:00.514Z,0
2023-04-11T22:40:25.771Z,0
2023-04-11T22:43:51.005Z,0
2023-04-11T22:47:16.549Z,0
2023-04-11T22:50:41.492Z,0
2023-04-11T22:54:06.669Z,0
2023-04-11T22:57:31.913Z,0
2023-04-11T23:00:57.131Z,0
2023-04-11T23:04:22.450Z,0
2023-04-11T23:07:47.618Z,0
2023-04-11T23:11:12.839Z,0
2023-04-11T23:14:38.050Z,0
2023-04-11T23:18:03.306Z,0
2023-04-11T23:21:28.508Z,0
2023-04-11T23:24:53.686Z,0
2023-04-11T23:28:18.931Z,0
2023-04-11T23:31:44.149Z,0
2023-04-11T23:35:09.377Z,0
2023-04-11T23:38:34.615Z,0
2023-04-11T23:41:59.817Z,0
2023-04-11T23:45:25.060Z,0
2023-04-11T23:48:50.235Z,0
2023-04-11T23:52:15.462Z,0
2023-04-11T23:55:40.731Z,0
2023-04-11T23:59:05.898Z,0
